createdAt,value
2017-05-01T00:00:48.294Z,56.98
2017-05-01T00:01:58.619Z,56.98
2017-05-01T00:03:09.089Z,56.79
2017-05-01T00:04:19.193Z,57.26
2017-05-01T00:05:29.326Z,57.65
2017-05-01T00:06:39.458Z,57.55
2017-05-01T00:07:49.538Z,57.36
2017-05-01T00:08:59.561Z,57.45
2017-05-01T00:10:09.326Z,57.74
2017-05-01T00:11:19.421Z,57.45
2017-05-01T00:12:29.539Z,57.55
2017-05-01T00:13:39.648Z,58.12
2017-05-01T00:14:50.039Z,58.22
2017-05-01T00:16:00.231Z,57.84
2017-05-01T00:17:10.395Z,57.93
2017-05-01T00:18:20.516Z,58.22
2017-05-01T00:19:30.670Z,57.84
2017-05-01T00:20:40.733Z,58.5
2017-05-01T00:21:50.516Z,58.22
2017-05-01T00:23:00.605Z,58.5
2017-05-01T00:24:10.754Z,58.69
2017-05-01T00:25:20.907Z,58.98
2017-05-01T00:26:31.352Z,58.69
2017-05-01T00:27:41.513Z,58.69
2017-05-01T00:28:51.315Z,58.98
2017-05-01T00:30:01.093Z,59.45
2017-05-01T00:31:11.222Z,58.98
2017-05-01T00:32:21.682Z,58.98
2017-05-01T00:33:31.854Z,59.07
2017-05-01T00:34:42.007Z,59.8
2017-05-01T00:35:52.148Z,59.55
2017-05-01T00:37:01.923Z,59.83
2017-05-01T00:38:12.373Z,58.95
2017-05-01T00:39:22.540Z,59.05
2017-05-01T00:40:32.686Z,59.33
2017-05-01T00:41:42.780Z,59.33
2017-05-01T00:42:52.343Z,59.61
2017-05-01T00:44:02.513Z,59.52
2017-05-01T00:45:12.732Z,60.09
2017-05-01T00:46:22.500Z,60.28
2017-05-01T00:47:32.598Z,59.71
2017-05-01T00:48:42.692Z,60.09
2017-05-01T00:49:53.038Z,59.8
2017-05-01T00:51:02.833Z,59.61
2017-05-01T00:52:12.952Z,59.9
2017-05-01T00:53:22.745Z,60.38
2017-05-01T00:54:32.843Z,60.09
2017-05-01T00:55:43.244Z,60.09
2017-05-01T00:56:53.339Z,59.8
2017-05-01T00:58:02.880Z,60.28
2017-05-01T00:59:12.974Z,59.99
2017-05-01T01:00:22.756Z,60.38
2017-05-01T01:01:33.202Z,60.57
2017-05-01T01:02:43.304Z,61.23
2017-05-01T01:03:53.445Z,60.66
2017-05-01T01:05:03.241Z,60.75
2017-05-01T01:06:13.337Z,61.04
2017-05-01T01:07:23.735Z,60.75
2017-05-01T01:08:33.845Z,61.04
2017-05-01T01:09:44.086Z,61.32
2017-05-01T01:10:54.315Z,60.66
2017-05-01T01:12:04.506Z,60.75
2017-05-01T01:13:14.850Z,60.57
2017-05-01T01:14:24.955Z,61.13
2017-05-01T01:15:35.070Z,61.23
2017-05-01T01:16:45.164Z,61.32
2017-05-01T01:17:55.390Z,61.42
2017-05-01T01:19:05.427Z,61.23
2017-05-01T01:20:15.561Z,61.52
2017-05-01T01:21:25.651Z,61.61
2017-05-01T01:22:35.541Z,61.13
2017-05-01T01:23:45.642Z,61.13
2017-05-01T01:24:56.057Z,61.32
2017-05-01T01:26:06.199Z,61.32
2017-05-01T01:27:16.297Z,61.13
2017-05-01T01:28:26.058Z,61.23
2017-05-01T01:29:36.200Z,61.13
2017-05-01T01:30:46.626Z,61.52
2017-05-01T01:31:56.917Z,62.08
2017-05-01T01:33:07.076Z,61.9
2017-05-01T01:34:17.177Z,62.08
2017-05-01T01:35:27.268Z,61.8
2017-05-01T01:36:37.882Z,61.42
2017-05-01T01:37:48.024Z,61.52
2017-05-01T01:38:58.224Z,61.61
2017-05-01T01:40:08.486Z,61.52
2017-05-01T01:41:18.584Z,61.52
2017-05-01T01:42:29.002Z,62.18
2017-05-01T01:43:39.143Z,61.42
2017-05-01T01:44:49.244Z,61.23
2017-05-01T01:45:59.406Z,61.9
2017-05-01T01:47:09.515Z,61.99
2017-05-01T01:48:19.583Z,61.99
2017-05-01T01:49:29.721Z,61.99
2017-05-01T01:50:39.834Z,61.9
2017-05-01T01:51:49.594Z,61.9
2017-05-01T01:52:59.769Z,62.27
2017-05-01T01:54:10.199Z,61.9
2017-05-01T01:55:20.292Z,61.99
2017-05-01T01:56:30.433Z,61.9
2017-05-01T01:57:40.557Z,61.99
2017-05-01T01:58:50.650Z,62.46
2017-05-01T02:00:01.076Z,62.37
2017-05-01T02:01:11.240Z,62.27
2017-05-01T02:02:21.496Z,62.85
2017-05-01T02:03:31.675Z,62.94
2017-05-01T02:04:41.878Z,62.56
2017-05-01T02:05:52.317Z,62.75
2017-05-01T02:07:02.457Z,62.85
2017-05-01T02:08:12.570Z,62.75
2017-05-01T02:09:22.808Z,62.85
2017-05-01T02:10:32.901Z,62.81
2017-05-01T02:11:43.418Z,63.2
2017-05-01T02:12:53.547Z,63.39
2017-05-01T02:14:03.703Z,63.29
2017-05-01T02:15:13.801Z,63.39
2017-05-01T02:16:23.905Z,62.91
2017-05-01T02:17:34.358Z,63.01
2017-05-01T02:18:44.457Z,62.72
2017-05-01T02:19:54.593Z,63.76
2017-05-01T02:21:04.852Z,63.2
2017-05-01T02:22:14.940Z,63.2
2017-05-01T02:23:25.400Z,63.57
2017-05-01T02:24:35.550Z,63.1
2017-05-01T02:25:45.314Z,63.67
2017-05-01T02:26:55.458Z,63.76
2017-05-01T02:28:05.552Z,63.67
2017-05-01T02:29:16.003Z,63.39
2017-05-01T02:30:26.087Z,63.57
2017-05-01T02:31:36.173Z,63.95
2017-05-01T02:32:46.328Z,64.05
2017-05-01T02:33:56.411Z,63.67
2017-05-01T02:35:06.798Z,63.67
2017-05-01T02:36:16.983Z,63.95
2017-05-01T02:37:27.079Z,63.95
2017-05-01T02:38:37.222Z,64.05
2017-05-01T02:39:47.095Z,63.67
2017-05-01T02:40:57.510Z,63.67
2017-05-01T02:42:07.735Z,64.05
2017-05-01T02:43:17.515Z,63.95
2017-05-01T02:44:27.621Z,63.76
2017-05-01T02:45:37.707Z,63.76
2017-05-01T02:46:48.106Z,63.95
2017-05-01T02:47:58.255Z,63.57
2017-05-01T02:49:08.346Z,63.95
2017-05-01T02:50:18.452Z,64.14
2017-05-01T02:51:28.546Z,64.14
2017-05-01T02:52:38.973Z,64.05
2017-05-01T02:53:49.159Z,64.24
2017-05-01T02:54:59.246Z,64.43
2017-05-01T02:56:09.475Z,64.14
2017-05-01T02:57:19.573Z,64.62
2017-05-01T02:58:30.003Z,64.43
2017-05-01T02:59:40.146Z,64.72
2017-05-01T03:00:50.251Z,64.34
2017-05-01T03:02:00.343Z,64.9
2017-05-01T03:03:10.536Z,64.34
2017-05-01T03:04:20.713Z,64.62
2017-05-01T03:05:30.846Z,65.09
2017-05-01T03:06:40.597Z,64.24
2017-05-01T03:07:50.772Z,65.47
2017-05-01T03:09:01.063Z,65
2017-05-01T03:10:11.472Z,65.09
2017-05-01T03:11:21.560Z,64.72
2017-05-01T03:12:31.770Z,64.81
2017-05-01T03:13:41.931Z,64.24
2017-05-01T03:14:52.129Z,64.78
2017-05-01T03:16:02.470Z,65
2017-05-01T03:17:12.561Z,65.38
2017-05-01T03:18:22.721Z,65.35
2017-05-01T03:19:32.480Z,65
2017-05-01T03:20:42.699Z,64.72
2017-05-01T03:21:53.088Z,64.62
2017-05-01T03:23:02.898Z,64.81
2017-05-01T03:24:13.057Z,64.72
2017-05-01T03:25:23.153Z,64.43
2017-05-01T03:26:33.281Z,64.78
2017-05-01T03:27:43.714Z,64.53
2017-05-01T03:28:53.808Z,64.9
2017-05-01T03:30:03.978Z,64.78
2017-05-01T03:31:13.787Z,65
2017-05-01T03:32:23.556Z,64.97
2017-05-01T03:33:33.967Z,64.3
2017-05-01T03:34:44.055Z,65.25
2017-05-01T03:35:54.230Z,65.35
2017-05-01T03:37:04.316Z,64.97
2017-05-01T03:38:14.397Z,65.06
2017-05-01T03:39:24.895Z,64.87
2017-05-01T03:40:35.248Z,65.25
2017-05-01T03:41:44.679Z,65.25
2017-05-01T03:42:54.809Z,65.63
2017-05-01T03:44:04.607Z,65.63
2017-05-01T03:45:15.013Z,65.25
2017-05-01T03:46:24.800Z,65.82
2017-05-01T03:47:35.066Z,66.01
2017-05-01T03:48:45.158Z,65.92
2017-05-01T03:49:55.256Z,65.92
2017-05-01T03:51:05.663Z,65.73
2017-05-01T03:52:15.780Z,65.63
2017-05-01T03:53:25.877Z,65.82
2017-05-01T03:54:35.989Z,65.82
2017-05-01T03:55:46.094Z,65.63
2017-05-01T03:56:56.537Z,65.92
2017-05-01T03:58:06.678Z,65.92
2017-05-01T03:59:16.542Z,66.11
2017-05-01T04:00:26.809Z,66.01
2017-05-01T04:01:36.947Z,65.73
2017-05-01T04:02:47.442Z,65.44
2017-05-01T04:03:57.552Z,65.44
2017-05-01T04:05:07.644Z,65.44
2017-05-01T04:06:17.793Z,65.54
2017-05-01T04:07:27.963Z,65.54
2017-05-01T04:08:38.461Z,65.44
2017-05-01T04:09:48.550Z,65.63
2017-05-01T04:10:58.647Z,65.54
2017-05-01T04:12:08.841Z,65.86
2017-05-01T04:13:18.985Z,65.57
2017-05-01T04:14:29.383Z,65.92
2017-05-01T04:15:39.231Z,65.95
2017-05-01T04:16:49.327Z,65.92
2017-05-01T04:17:59.552Z,65.73
2017-05-01T04:19:09.303Z,65.73
2017-05-01T04:20:19.404Z,65.54
2017-05-01T04:21:29.548Z,65.63
2017-05-01T04:22:39.667Z,65.73
2017-05-01T04:23:49.838Z,65.44
2017-05-01T04:24:59.983Z,65.73
2017-05-01T04:26:10.417Z,65.63
2017-05-01T04:27:20.505Z,65.67
2017-05-01T04:28:30.615Z,65.47
2017-05-01T04:29:40.751Z,65.57
2017-05-01T04:30:51.024Z,65.57
2017-05-01T04:32:01.407Z,65.44
2017-05-01T04:33:11.526Z,65.92
2017-05-01T04:34:21.634Z,65.44
2017-05-01T04:35:31.789Z,65.73
2017-05-01T04:36:41.883Z,65.44
2017-05-01T04:37:52.331Z,65.95
2017-05-01T04:39:02.493Z,65.19
2017-05-01T04:40:12.597Z,65.54
2017-05-01T04:41:22.704Z,65.47
2017-05-01T04:42:32.817Z,65.57
2017-05-01T04:43:43.353Z,65.67
2017-05-01T04:44:53.432Z,65.63
2017-05-01T04:46:03.562Z,66.14
2017-05-01T04:47:13.750Z,65.57
2017-05-01T04:48:23.934Z,65.67
2017-05-01T04:49:34.335Z,65.67
2017-05-01T04:50:44.460Z,65.86
2017-05-01T04:51:54.622Z,65.67
2017-05-01T04:53:04.712Z,65.95
2017-05-01T04:54:14.548Z,66.05
2017-05-01T04:55:24.964Z,65.57
2017-05-01T04:56:35.062Z,65.28
2017-05-01T04:57:45.197Z,65.28
2017-05-01T04:58:55.462Z,65.57
2017-05-01T05:00:05.551Z,65.47
2017-05-01T05:01:15.949Z,65.47
2017-05-01T05:02:26.117Z,65.19
2017-05-01T05:03:36.355Z,65.57
2017-05-01T05:04:46.473Z,65.09
2017-05-01T05:05:56.634Z,65.19
2017-05-01T05:07:07.063Z,65
2017-05-01T05:08:17.147Z,65
2017-05-01T05:09:27.239Z,65.28
2017-05-01T05:10:37.375Z,65.28
2017-05-01T05:11:47.458Z,64.9
2017-05-01T05:12:57.534Z,65.09
2017-05-01T05:14:07.627Z,64.81
2017-05-01T05:15:17.467Z,64.81
2017-05-01T05:16:27.614Z,64.81
2017-05-01T05:17:37.431Z,64.81
2017-05-01T05:18:47.940Z,64.75
2017-05-01T05:19:58.217Z,64.27
2017-05-01T05:21:08.455Z,64.65
2017-05-01T05:22:18.564Z,64.37
2017-05-01T05:23:28.754Z,64.37
2017-05-01T05:24:39.218Z,64.46
2017-05-01T05:25:49.362Z,64.75
2017-05-01T05:26:59.492Z,64.27
2017-05-01T05:28:09.694Z,63.99
2017-05-01T05:29:19.541Z,64.08
2017-05-01T05:30:29.959Z,63.99
2017-05-01T05:31:40.109Z,64.08
2017-05-01T05:32:49.904Z,64.27
2017-05-01T05:34:00.013Z,63.79
2017-05-01T05:35:10.118Z,63.79
2017-05-01T05:36:20.547Z,63.7
2017-05-01T05:37:30.638Z,63.89
2017-05-01T05:38:40.776Z,63.7
2017-05-01T05:39:50.885Z,63.6
2017-05-01T05:41:00.807Z,63.89
2017-05-01T05:42:10.940Z,63.7
2017-05-01T05:43:21.070Z,63.79
2017-05-01T05:44:31.161Z,63.17
2017-05-01T05:45:41.257Z,63.26
2017-05-01T05:46:51.348Z,63.07
2017-05-01T05:48:01.793Z,62.88
2017-05-01T05:49:11.558Z,62.69
2017-05-01T05:50:21.647Z,62.69
2017-05-01T05:51:31.782Z,62.78
2017-05-01T05:52:41.928Z,62.4
2017-05-01T05:53:52.383Z,62.59
2017-05-01T05:55:02.483Z,62.59
2017-05-01T05:56:12.582Z,62.4
2017-05-01T05:57:22.685Z,62.02
2017-05-01T05:58:32.836Z,62.12
2017-05-01T05:59:43.222Z,62.02
2017-05-01T06:00:53.322Z,61.64
2017-05-01T06:02:03.103Z,61.93
2017-05-01T06:03:12.852Z,61.45
2017-05-01T06:04:22.952Z,61.29
2017-05-01T06:05:33.300Z,61.35
2017-05-01T06:06:43.405Z,61.26
2017-05-01T06:07:53.631Z,61.48
2017-05-01T06:09:03.753Z,61.58
2017-05-01T06:10:13.951Z,61.19
2017-05-01T06:11:24.350Z,61.29
2017-05-01T06:12:34.466Z,61.1
2017-05-01T06:13:44.256Z,60.82
2017-05-01T06:14:54.359Z,60.91
2017-05-01T06:16:04.456Z,60.82
2017-05-01T06:17:14.837Z,60.82
2017-05-01T06:18:24.968Z,60.82
2017-05-01T06:19:34.737Z,60.72
2017-05-01T06:20:44.921Z,60.63
2017-05-01T06:21:55.034Z,60.15
2017-05-01T06:23:05.393Z,60.05
2017-05-01T06:24:15.486Z,60.15
2017-05-01T06:25:25.658Z,59.86
2017-05-01T06:26:35.765Z,59.67
2017-05-01T06:27:45.525Z,60.05
2017-05-01T06:28:55.918Z,59.86
2017-05-01T06:30:06.078Z,59.89
2017-05-01T06:31:16.409Z,59.51
2017-05-01T06:32:26.555Z,59.99
2017-05-01T06:33:36.722Z,59.7
2017-05-01T06:34:47.203Z,59.61
2017-05-01T06:35:57.367Z,59.8
2017-05-01T06:37:07.460Z,59.03
2017-05-01T06:38:17.561Z,59.13
2017-05-01T06:39:27.673Z,59.03
2017-05-01T06:40:37.894Z,58.94
2017-05-01T06:41:48.021Z,59.13
2017-05-01T06:42:58.179Z,58.56
2017-05-01T06:44:08.420Z,58.37
2017-05-01T06:45:18.509Z,58.65
2017-05-01T06:46:28.916Z,58.87
2017-05-01T06:47:39.123Z,58.21
2017-05-01T06:48:48.898Z,58.4
2017-05-01T06:49:58.681Z,57.82
2017-05-01T06:51:08.907Z,57.35
2017-05-01T06:52:19.302Z,56.87
2017-05-01T06:53:29.395Z,56.78
2017-05-01T06:54:39.558Z,56.87
2017-05-01T06:55:49.661Z,56.97
2017-05-01T06:56:59.767Z,56.87
2017-05-01T06:58:10.197Z,56.68
2017-05-01T06:59:20.346Z,56.49
2017-05-01T07:00:30.445Z,56.4
2017-05-01T07:01:40.546Z,56.21
2017-05-01T07:02:50.648Z,55.95
2017-05-01T07:04:01.018Z,55.85
2017-05-01T07:05:10.810Z,56.04
2017-05-01T07:06:21.157Z,55.95
2017-05-01T07:07:31.263Z,55.76
2017-05-01T07:08:41.357Z,56.04
2017-05-01T07:09:51.725Z,55.85
2017-05-01T07:11:01.512Z,55.41
2017-05-01T07:12:11.623Z,55.38
2017-05-01T07:13:21.764Z,55.12
2017-05-01T07:14:31.885Z,55.12
2017-05-01T07:15:42.294Z,54.93
2017-05-01T07:16:51.737Z,54.93
2017-05-01T07:18:01.494Z,54.07
2017-05-01T07:19:11.633Z,54.17
2017-05-01T07:20:21.743Z,54.17
2017-05-01T07:21:32.204Z,54.07
2017-05-01T07:22:42.298Z,54.07
2017-05-01T07:23:52.412Z,54.26
2017-05-01T07:25:02.508Z,54.07
2017-05-01T07:26:12.666Z,53.59
2017-05-01T07:27:23.088Z,54.26
2017-05-01T07:28:33.248Z,54.17
2017-05-01T07:29:43.406Z,54.55
2017-05-01T07:30:53.837Z,53.97
2017-05-01T07:32:03.972Z,53.69
2017-05-01T07:33:14.371Z,53.41
2017-05-01T07:34:24.537Z,53.33
2017-05-01T07:35:34.653Z,53.24
2017-05-01T07:36:44.809Z,53.14
2017-05-01T07:37:54.986Z,53.14
2017-05-01T07:39:05.394Z,53.33
2017-05-01T07:40:15.615Z,52.76
2017-05-01T07:41:25.426Z,52.86
2017-05-01T07:42:35.567Z,52.76
2017-05-01T07:43:45.714Z,52.38
2017-05-01T07:44:56.097Z,52.28
2017-05-01T07:46:06.340Z,52.28
2017-05-01T07:47:16.461Z,52.28
2017-05-01T07:48:26.568Z,52.28
2017-05-01T07:49:36.666Z,51.83
2017-05-01T07:50:47.110Z,52.12
2017-05-01T07:51:57.247Z,51.83
2017-05-01T07:53:07.365Z,52.03
2017-05-01T07:54:17.484Z,51.54
2017-05-01T07:55:27.651Z,51.35
2017-05-01T07:56:38.051Z,51.26
2017-05-01T07:57:48.148Z,50.4
2017-05-01T07:58:58.253Z,50.31
2017-05-01T08:00:08.154Z,50.59
2017-05-01T08:01:18.312Z,50.78
2017-05-01T08:02:28.771Z,50.69
2017-05-01T08:03:39.131Z,50.71
2017-05-01T08:04:49.261Z,50.24
2017-05-01T08:05:59.362Z,50.81
2017-05-01T08:07:09.458Z,50.24
2017-05-01T08:08:19.516Z,49.95
2017-05-01T08:09:29.691Z,49.76
2017-05-01T08:10:39.959Z,49.47
2017-05-01T08:11:50.161Z,49.66
2017-05-01T08:13:00.267Z,49.18
2017-05-01T08:14:10.308Z,49.02
2017-05-01T08:15:20.427Z,48.83
2017-05-01T08:16:30.195Z,48.16
2017-05-01T08:17:39.950Z,47.97
2017-05-01T08:18:50.047Z,48.35
2017-05-01T08:20:00.496Z,48.25
2017-05-01T08:21:11.374Z,47.87
2017-05-01T08:22:22.180Z,47.99
2017-05-01T08:23:33.014Z,46.94
2017-05-01T08:24:43.952Z,45.7
2017-05-01T08:25:54.746Z,45.43
2017-05-01T08:27:05.107Z,45.17
2017-05-01T08:28:15.570Z,44.13
2017-05-01T08:29:26.423Z,42.63
2017-05-01T08:30:37.315Z,42.74
2017-05-01T08:31:48.439Z,41.6
2017-05-01T08:32:59.275Z,40.66
2017-05-01T08:34:10.121Z,39.5
2017-05-01T08:35:20.700Z,39.43
2017-05-01T08:36:31.514Z,38.66
2017-05-01T08:37:42.624Z,39.53
2017-05-01T08:38:53.419Z,39.43
2017-05-01T08:40:04.272Z,38.29
2017-05-01T08:41:15.079Z,37.82
2017-05-01T08:42:25.898Z,36.86
2017-05-01T08:43:37.020Z,37.07
2017-05-01T08:44:47.519Z,36.2
2017-05-01T08:45:58.327Z,36.49
2017-05-01T08:47:09.129Z,34.97
2017-05-01T08:48:20.128Z,35.93
2017-05-01T08:49:31.238Z,34.88
2017-05-01T08:50:42.085Z,35.26
2017-05-01T08:51:52.897Z,35.45
2017-05-01T08:53:03.725Z,35.45
2017-05-01T08:54:14.530Z,35.74
2017-05-01T08:55:25.159Z,35.74
2017-05-01T08:56:35.969Z,34.12
2017-05-01T08:57:46.833Z,34.03
2017-05-01T08:58:57.676Z,34.8
2017-05-01T09:00:08.627Z,34.41
2017-05-01T09:01:19.425Z,35.06
2017-05-01T09:02:30.276Z,34.51
2017-05-01T09:03:41.165Z,34.12
2017-05-01T09:04:52.094Z,34.8
2017-05-01T09:06:02.926Z,34.51
2017-05-01T09:07:14.043Z,34.61
2017-05-01T09:08:24.893Z,34.41
2017-05-01T09:09:35.790Z,34.03
2017-05-01T09:10:46.680Z,34.05
2017-05-01T09:11:57.551Z,32.31
2017-05-01T09:13:08.700Z,31.85
2017-05-01T09:14:19.674Z,31.09
2017-05-01T09:15:30.159Z,31.95
2017-05-01T09:16:41.060Z,31.92
2017-05-01T09:17:51.957Z,32.76
2017-05-01T09:19:03.082Z,32.18
2017-05-01T09:20:13.904Z,31.51
2017-05-01T09:21:24.709Z,31.72
2017-05-01T09:22:35.578Z,32.1
2017-05-01T09:23:46.387Z,32.01
2017-05-01T09:24:57.836Z,32.01
2017-05-01T09:26:08.701Z,31.92
2017-05-01T09:27:19.545Z,31.56
2017-05-01T09:28:30.392Z,31.29
2017-05-01T09:29:40.938Z,30.15
2017-05-01T09:30:52.051Z,29.47
2017-05-01T09:32:02.914Z,29.47
2017-05-01T09:33:13.759Z,27.94
2017-05-01T09:34:24.285Z,28.04
2017-05-01T09:35:35.103Z,27.28
2017-05-01T09:36:46.226Z,27.19
2017-05-01T09:37:57.066Z,27.11
2017-05-01T09:39:07.943Z,26.14
2017-05-01T09:40:18.806Z,26.04
2017-05-01T09:41:29.624Z,26.72
2017-05-01T09:42:40.795Z,27.49
2017-05-01T09:43:51.742Z,27.49
2017-05-01T09:45:02.608Z,26.54
2017-05-01T09:46:13.098Z,26.65
2017-05-01T09:47:23.918Z,26.65
2017-05-01T09:48:35.105Z,26.18
2017-05-01T09:49:45.942Z,25.31
2017-05-01T09:50:56.776Z,24.65
2017-05-01T09:52:07.697Z,24.74
2017-05-01T09:53:18.508Z,24.84
2017-05-01T09:54:29.688Z,24.26
2017-05-01T09:55:40.058Z,24.45
2017-05-01T09:56:50.909Z,24.35
2017-05-01T09:58:01.448Z,24.16
2017-05-01T09:59:12.314Z,23.39
2017-05-01T10:00:23.613Z,23.86
2017-05-01T10:01:34.667Z,23.76
2017-05-01T10:02:45.688Z,24.15
2017-05-01T10:03:56.510Z,23.86
2017-05-01T10:05:07.364Z,23.76
2017-05-01T10:06:18.155Z,24.8
2017-05-01T10:07:29.093Z,25.18
2017-05-01T10:08:40.047Z,25.54
2017-05-01T10:09:50.869Z,25.54
2017-05-01T10:11:01.710Z,25.82
2017-05-01T10:12:12.439Z,25.73
2017-05-01T10:13:23.296Z,25.92
2017-05-01T10:14:33.533Z,25.92
2017-05-01T10:15:44.331Z,26.02
2017-05-01T10:16:55.184Z,26.21
2017-05-01T10:18:06.538Z,26.11
2017-05-01T10:19:17.433Z,26.12
2017-05-01T10:20:27.969Z,25.45
2017-05-01T10:21:38.362Z,25.75
2017-05-01T10:22:48.904Z,25.18
2017-05-01T10:24:00.023Z,25.09
2017-05-01T10:25:10.562Z,25.09
2017-05-01T10:26:21.545Z,25.38
2017-05-01T10:27:32.411Z,24.8
2017-05-01T10:28:43.264Z,24.71
2017-05-01T10:29:54.095Z,25.27
2017-05-01T10:31:05.085Z,25.26
2017-05-01T10:32:15.884Z,25.55
2017-05-01T10:33:26.848Z,25.82
2017-05-01T10:34:37.286Z,26
2017-05-01T10:35:48.393Z,27.05
2017-05-01T10:36:59.243Z,27.44
2017-05-01T10:38:10.107Z,28.37
2017-05-01T10:39:20.293Z,28.75
2017-05-01T10:40:31.178Z,29.43
2017-05-01T10:41:42.319Z,29.22
2017-05-01T10:42:53.180Z,29.9
2017-05-01T10:44:03.996Z,29.99
2017-05-01T10:45:14.884Z,30.28
2017-05-01T10:46:25.753Z,30.38
2017-05-01T10:47:37.004Z,30.76
2017-05-01T10:48:47.948Z,30.74
2017-05-01T10:49:59.003Z,31.32
2017-05-01T10:51:09.865Z,31.69
2017-05-01T10:52:20.665Z,32.07
2017-05-01T10:53:31.722Z,32.07
2017-05-01T10:54:42.630Z,32.07
2017-05-01T10:55:53.505Z,32.65
2017-05-01T10:57:04.309Z,32.55
2017-05-01T10:58:15.131Z,32.54
2017-05-01T10:59:25.973Z,32.82
2017-05-01T11:00:36.105Z,33.01
2017-05-01T11:01:47.040Z,33.21
2017-05-01T11:02:57.981Z,33.21
2017-05-01T11:04:08.830Z,33.31
2017-05-01T11:05:19.989Z,33.21
2017-05-01T11:06:30.818Z,33.5
2017-05-01T11:07:41.287Z,33.5
2017-05-01T11:08:52.117Z,34.27
2017-05-01T11:10:02.933Z,33.98
2017-05-01T11:11:14.027Z,33.98
2017-05-01T11:12:24.885Z,34.07
2017-05-01T11:13:35.385Z,33.98
2017-05-01T11:14:46.181Z,34.07
2017-05-01T11:15:56.989Z,33.98
2017-05-01T11:17:08.115Z,34.07
2017-05-01T11:18:18.969Z,33.88
2017-05-01T11:19:29.817Z,33.98
2017-05-01T11:20:40.631Z,34.17
2017-05-01T11:21:51.133Z,33.99
2017-05-01T11:23:02.281Z,33.98
2017-05-01T11:24:12.845Z,33.98
2017-05-01T11:25:23.719Z,34.07
2017-05-01T11:26:34.244Z,33.88
2017-05-01T11:27:45.140Z,34.17
2017-05-01T11:28:56.251Z,33.99
2017-05-01T11:30:07.226Z,34.07
2017-05-01T11:31:18.150Z,34.17
2017-05-01T11:32:29.046Z,33.98
2017-05-01T11:33:39.861Z,34.36
2017-05-01T11:34:51.057Z,34.45
2017-05-01T11:36:01.586Z,34.27
2017-05-01T11:37:12.560Z,34.75
2017-05-01T11:38:23.448Z,34.92
2017-05-01T11:39:34.236Z,34.92
2017-05-01T11:40:45.392Z,35.02
2017-05-01T11:41:56.294Z,34.73
2017-05-01T11:43:06.801Z,35.21
2017-05-01T11:44:17.645Z,35.21
2017-05-01T11:45:28.477Z,35.4
2017-05-01T11:46:39.589Z,35.3
2017-05-01T11:47:50.482Z,35.4
2017-05-01T11:49:01.272Z,35.11
2017-05-01T11:50:12.261Z,35.11
2017-05-01T11:51:23.084Z,34.82
2017-05-01T11:52:34.180Z,35.13
2017-05-01T11:53:45.100Z,34.94
2017-05-01T11:54:55.585Z,35.03
2017-05-01T11:56:06.043Z,34.65
2017-05-01T11:57:16.902Z,34.65
2017-05-01T11:58:28.037Z,34.47
2017-05-01T11:59:38.851Z,34.38
2017-05-01T12:00:49.637Z,34.47
2017-05-01T12:02:00.557Z,34.38
2017-05-01T12:03:11.421Z,34.45
2017-05-01T12:04:22.607Z,34.07
2017-05-01T12:05:32.992Z,33.9
2017-05-01T12:06:44.024Z,34.07
2017-05-01T12:07:55.129Z,33.78
2017-05-01T12:09:06.061Z,34.07
2017-05-01T12:10:18.223Z,33.69
2017-05-01T12:11:28.708Z,33.78
2017-05-01T12:12:39.184Z,33.69
2017-05-01T12:13:50.017Z,33.59
2017-05-01T12:15:00.956Z,33.32
2017-05-01T12:16:12.064Z,33.59
2017-05-01T12:17:22.905Z,33.69
2017-05-01T12:18:33.749Z,33.98
2017-05-01T12:19:44.266Z,33.88
2017-05-01T12:20:55.095Z,33.59
2017-05-01T12:22:06.167Z,33.59
2017-05-01T12:23:17.047Z,33.61
2017-05-01T12:24:27.946Z,33.31
2017-05-01T12:25:38.817Z,33.32
2017-05-01T12:26:49.658Z,32.93
2017-05-01T12:28:00.693Z,32.47
2017-05-01T12:29:10.872Z,32.18
2017-05-01T12:30:21.362Z,32.2
2017-05-01T12:31:32.214Z,32.3
2017-05-01T12:32:43.201Z,32.2
2017-05-01T12:33:54.317Z,31.82
2017-05-01T12:35:05.185Z,32.1
2017-05-01T12:36:16.014Z,32.57
2017-05-01T12:37:26.502Z,32.95
2017-05-01T12:38:37.345Z,33.34
2017-05-01T12:39:48.507Z,33.8
2017-05-01T12:40:59.439Z,34.19
2017-05-01T12:42:10.269Z,34.36
2017-05-01T12:43:21.082Z,34.75
2017-05-01T12:44:31.951Z,35.13
2017-05-01T12:45:43.067Z,35.42
2017-05-01T12:46:53.896Z,35.49
2017-05-01T12:48:04.740Z,35.69
2017-05-01T12:49:15.642Z,35.78
2017-05-01T12:50:26.567Z,35.97
2017-05-01T12:51:37.727Z,36.26
2017-05-01T12:52:48.882Z,36.26
2017-05-01T12:53:59.477Z,36.44
2017-05-01T12:55:10.011Z,36.53
2017-05-01T12:56:20.499Z,36.46
2017-05-01T12:57:31.690Z,36.55
2017-05-01T12:58:42.540Z,36.26
2017-05-01T12:59:53.352Z,36.26
2017-05-01T13:01:13.257Z,36.16
2017-05-01T13:02:52.248Z,36.16
2017-05-01T13:04:27.372Z,36.36
2017-05-01T13:06:04.060Z,36.07
2017-05-01T13:07:40.302Z,36.07
2017-05-01T13:09:17.670Z,35.78
2017-05-01T13:10:51.120Z,35.78
2017-05-01T13:12:26.327Z,35.97
2017-05-01T13:14:02.234Z,35.97
2017-05-01T13:15:35.577Z,35.78
2017-05-01T13:17:09.318Z,35.97
2017-05-01T13:18:45.608Z,36.36
2017-05-01T13:20:23.582Z,36.16
2017-05-01T13:22:00.203Z,35.97
2017-05-01T13:23:28.990Z,36.09
2017-05-01T13:24:48.354Z,35.89
2017-05-01T13:26:04.353Z,35.71
2017-05-01T13:27:19.839Z,35.89
2017-05-01T13:28:36.754Z,35.61
2017-05-01T13:29:53.416Z,35.8
2017-05-01T13:31:09.613Z,35.71
2017-05-01T13:32:26.901Z,35.51
2017-05-01T13:33:47.610Z,35.51
2017-05-01T13:35:03.873Z,35.22
2017-05-01T13:36:19.393Z,34.94
2017-05-01T13:37:35.398Z,35.32
2017-05-01T13:38:51.627Z,35.42
2017-05-01T13:40:07.429Z,35.22
2017-05-01T13:41:22.593Z,34.94
2017-05-01T13:42:37.960Z,35.24
2017-05-01T13:43:48.879Z,34.95
2017-05-01T13:44:59.722Z,34.86
2017-05-01T13:46:10.959Z,34.76
2017-05-01T13:47:21.877Z,34.67
2017-05-01T13:48:32.841Z,34.47
2017-05-01T13:49:43.745Z,34.67
2017-05-01T13:50:56.059Z,34.95
2017-05-01T13:52:07.246Z,34.95
2017-05-01T13:53:18.417Z,34.95
2017-05-01T13:54:29.017Z,34.57
2017-05-01T13:55:41.374Z,34.76
2017-05-01T13:56:53.003Z,34.76
2017-05-01T13:58:04.191Z,35.13
2017-05-01T13:59:16.849Z,34.84
2017-05-01T14:00:27.688Z,34.84
2017-05-01T14:01:43.293Z,34.84
2017-05-01T14:03:16.406Z,34.84
2017-05-01T14:04:40.010Z,35.14
2017-05-01T14:05:56.831Z,35.22
2017-05-01T14:07:17.795Z,35.42
2017-05-01T14:08:36.693Z,35.8
2017-05-01T14:09:53.431Z,35.42
2017-05-01T14:11:15.155Z,35.71
2017-05-01T14:12:37.821Z,35.71
2017-05-01T14:13:52.240Z,35.8
2017-05-01T14:15:15.884Z,36.16
2017-05-01T14:16:45.303Z,36.36
2017-05-01T14:18:11.908Z,36.46
2017-05-01T14:19:22.789Z,36.55
2017-05-01T14:20:33.667Z,36.55
2017-05-01T14:21:44.179Z,36.55
2017-05-01T14:22:55.095Z,36.65
2017-05-01T14:24:06.258Z,36.36
2017-05-01T14:25:16.718Z,36.46
2017-05-01T14:26:27.615Z,36.55
2017-05-01T14:27:38.528Z,36.46
2017-05-01T14:28:49.579Z,36.55
2017-05-01T14:30:00.800Z,36.55
2017-05-01T14:31:11.329Z,36.74
2017-05-01T14:32:22.206Z,36.93
2017-05-01T14:33:33.130Z,36.84
2017-05-01T14:34:43.971Z,37.3
2017-05-01T14:35:57.994Z,36.74
2017-05-01T14:37:18.297Z,37.01
2017-05-01T14:38:37.690Z,37.03
2017-05-01T14:39:58.345Z,36.93
2017-05-01T14:41:21.135Z,36.74
2017-05-01T14:42:48.955Z,36.93
2017-05-01T14:44:23.528Z,36.84
2017-05-01T14:45:54.318Z,36.74
2017-05-01T14:47:27.458Z,36.36
2017-05-01T14:49:00.916Z,36.36
2017-05-01T14:50:31.795Z,36.65
2017-05-01T14:51:54.569Z,36.65
2017-05-01T14:53:16.405Z,37.22
2017-05-01T14:54:26.854Z,37.13
2017-05-01T14:55:37.821Z,36.65
2017-05-01T14:56:48.716Z,36.74
2017-05-01T14:57:59.755Z,36.46
2017-05-01T14:59:10.677Z,36.84
2017-05-01T15:00:21.938Z,36.46
2017-05-01T15:01:32.769Z,36.55
2017-05-01T15:02:43.368Z,36.65
2017-05-01T15:03:54.186Z,36.07
2017-05-01T15:05:04.861Z,35.97
2017-05-01T15:06:15.724Z,35.97
2017-05-01T15:07:26.538Z,36.26
2017-05-01T15:08:37.409Z,35.97
2017-05-01T15:09:48.315Z,35.97
2017-05-01T15:10:59.558Z,35.3
2017-05-01T15:12:10.055Z,35.59
2017-05-01T15:13:20.696Z,35.3
2017-05-01T15:14:31.620Z,35.11
2017-05-01T15:15:42.447Z,34.92
2017-05-01T15:16:53.576Z,35.02
2017-05-01T15:18:04.521Z,35.11
2017-05-01T15:19:15.346Z,35.4
2017-05-01T15:20:26.161Z,35.21
2017-05-01T15:21:37.018Z,35.3
2017-05-01T15:22:48.093Z,35.3
2017-05-01T15:23:58.963Z,35.21